Stations météo

réclame
Mon MeteoGroup
Toulon/Ile du Levant, France (7678): Température de l'air & dewpoint: 21.04.2018 08:00:00 - 27.04.2018 08:00:00 (CEST)Toulon/Ile du Levant, France (7678): Vitesse du vent & gusts: 21.04.2018 08:00:00 - 27.04.2018 08:00:00 (CEST)Toulon/Ile du Levant, France (7678): Direction du vent: 21.04.2018 08:00:00 - 27.04.2018 08:00:00 (CEST)Toulon/Ile du Levant, France (7678): reduced air pressure: 21.04.2018 08:00:00 - 27.04.2018 08:00:00 (CEST)Toulon/Ile du Levant, France (7678): Quantités de précipitations: 21.04.2018 08:00:00 - 27.04.2018 08:00:00 (CEST)
Date & Time tt [°C] td [°C] ff [km/h] ff [knt] fx [km/h] fx [knt] dd ppp [hPa] rr [mm]
27.04.2018 08:00:00 15,9 14,9 18 10 24 13 E 1011,8 -
27.04.2018 07:00:00 15,0 14,4 15 8 22 12 ENE 1011,5 0,0
27.04.2018 06:00:00 15,2 14,6 18 10 26 14 E 1011,2 0,2
27.04.2018 05:00:00 15,5 14,9 16 9 24 13 E 1011,4 -
27.04.2018 04:00:00 15,7 15,1 16 9 24 13 E 1011,4 0,0
27.04.2018 03:00:00 15,6 14,3 15 8 28 15 E 1011,6 0,0
27.04.2018 02:00:00 15,5 14,4 21 11 31 17 E 1011,8 -
27.04.2018 01:00:00 15,7 15,2 21 11 28 15 E 1012,3 0,0
27.04.2018 00:00:00 15,3 14,7 18 10 24 13 E 1012,2 0,0
26.04.2018 23:00:00 15,3 14,7 15 8 21 11 ENE 1012,2 -
26.04.2018 22:00:00 15,1 14,1 13 7 18 10 E 1012,5 0,0
26.04.2018 21:00:00 15,7 14,6 13 7 21 11 E 1011,7 0,0
26.04.2018 20:00:00 16,7 14,5 16 9 22 12 ESE 1011,5 -
26.04.2018 19:00:00 17,8 15,1 15 8 22 12 ESE 1011,4 0,0
26.04.2018 18:00:00 19,2 15,3 16 9 22 12 ESE 1011,3 0,0
26.04.2018 17:00:00 19,1 15,2 13 7 21 11 SE 1011,4 -
26.04.2018 16:00:00 19,7 14,3 9 5 18 10 SE 1011,9 0,0
26.04.2018 15:00:00 18,9 14,8 5 3 18 10 W 1012,6 0,0
26.04.2018 14:00:00 17,9 15,2 15 8 18 10 W 1013,0 -
26.04.2018 13:00:00 18,3 14,2 9 5 18 10 SSE 1013,8 0,0
26.04.2018 12:00:00 18,3 15,0 9 5 16 9 SSE 1014,1 0,0
26.04.2018 11:00:00 16,9 15,2 5 3 15 8 W 1014,0 -
26.04.2018 10:00:00 - - - - - - - - -
26.04.2018 09:00:00 - - - - - - - - -
26.04.2018 08:00:00 - - - - - - - - -
26.04.2018 07:00:00 - - - - - - - - -
26.04.2018 06:00:00 - - - - - - - - -
26.04.2018 05:00:00 - - - - - - - - -
26.04.2018 04:00:00 - - - - - - - - -
26.04.2018 03:00:00 - - - - - - - - -
26.04.2018 02:00:00 - - - - - - - - -
26.04.2018 01:00:00 - - - - - - - - -
26.04.2018 00:00:00 - - - - - - - - -
25.04.2018 23:00:00 - - - - - - - - -
25.04.2018 22:00:00 - - - - - - - - -
25.04.2018 21:00:00 - - - - - - - - -
25.04.2018 20:00:00 - - - - - - - - -
25.04.2018 19:00:00 - - - - - - - - -
25.04.2018 18:00:00 - - - - - - - - -
25.04.2018 17:00:00 - - - - - - - - -
25.04.2018 16:00:00 - - - - - - - - -
25.04.2018 15:00:00 - - - - - - - - -
25.04.2018 14:00:00 - - - - - - - - -
25.04.2018 13:00:00 18,7 14,8 8 4 18 10 SE 1017,4 0,0
25.04.2018 12:00:00 17,3 14,4 8 4 15 8 W 1018,6 0,0
25.04.2018 11:00:00 16,5 14,7 8 4 15 8 WNW 1018,9 -
25.04.2018 10:00:00 15,7 14,4 8 4 11 6 W 1018,8 0,0
25.04.2018 09:00:00 15,2 14,6 5 3 9 5 NW 1018,5 0,0
25.04.2018 08:00:00 14,7 14,2 4 2 9 5 NW 1018,2 -
25.04.2018 07:00:00 14,5 14,0 8 4 9 5 NNW 1018,0 0,0
25.04.2018 06:00:00 14,6 14,3 9 5 13 7 E 1017,6 0,0
25.04.2018 05:00:00 14,5 14,2 9 5 21 11 E 1017,5 -
25.04.2018 04:00:00 14,7 14,4 16 9 24 13 E 1017,2 0,0
25.04.2018 03:00:00 14,8 14,5 18 10 24 13 E 1017,4 0,2
25.04.2018 02:00:00 14,7 14,4 15 8 16 9 E 1017,9 -
25.04.2018 01:00:00 14,7 14,4 13 7 16 9 E 1018,1 0,0
25.04.2018 00:00:00 14,8 14,5 15 8 18 10 E 1018,2 0,0
24.04.2018 23:00:00 14,9 14,4 13 7 21 11 E 1018,3 -
24.04.2018 22:00:00 15,0 14,5 13 7 18 10 ENE 1018,1 0,0
24.04.2018 21:00:00 15,4 14,8 15 8 24 13 ENE 1017,7 0,0
24.04.2018 20:00:00 16,2 14,9 18 10 26 14 E 1017,3 -
24.04.2018 19:00:00 17,1 15,1 18 10 24 13 E 1017,4 0,0
24.04.2018 18:00:00 18,7 15,4 15 8 24 13 E 1017,6 0,0
24.04.2018 17:00:00 18,6 15,1 16 9 24 13 E 1017,7 -
24.04.2018 16:00:00 19,3 15,8 16 9 26 14 E 1018,1 0,0
24.04.2018 15:00:00 18,9 15,9 18 10 34 18 E 1018,7 0,0
24.04.2018 14:00:00 18,8 15,3 22 12 37 20 E 1018,5 -
24.04.2018 13:00:00 18,4 15,1 29 16 37 20 E 1018,6 0,0
24.04.2018 12:00:00 18,7 15,4 26 14 35 19 E 1018,8 0,0
24.04.2018 11:00:00 18,6 14,9 24 13 39 21 E 1018,5 -
24.04.2018 10:00:00 18,2 14,9 22 12 35 19 E 1018,1 0,0
24.04.2018 09:00:00 17,1 14,9 21 11 31 17 E 1017,8 0,0
24.04.2018 08:00:00 15,3 14,8 16 9 26 14 E 1017,3 -
24.04.2018 07:00:00 14,7 14,2 15 8 22 12 E 1016,6 0,0
24.04.2018 06:00:00 14,8 14,3 16 9 24 13 E 1016,8 0,0
24.04.2018 05:00:00 15,3 14,7 13 7 21 11 E 1016,6 -
24.04.2018 04:00:00 15,7 14,4 13 7 16 9 E 1016,5 0,0
24.04.2018 03:00:00 16,4 14,2 15 8 22 12 W 1016,7 0,0
24.04.2018 02:00:00 16,1 14,6 18 10 31 17 W 1016,9 -
24.04.2018 01:00:00 15,4 14,6 18 10 26 14 W 1017,1 0,0
24.04.2018 00:00:00 15,3 14,8 21 11 34 18 W 1017,2 0,0
23.04.2018 23:00:00 15,3 14,7 26 14 37 20 W 1017,3 -
23.04.2018 22:00:00 15,6 14,8 26 14 41 22 W 1017,8 0,0
23.04.2018 21:00:00 15,6 14,8 29 16 42 23 W 1017,3 0,0
23.04.2018 20:00:00 16,4 14,1 22 12 29 16 W 1017,0 -
23.04.2018 19:00:00 17,1 13,4 21 11 31 17 W 1017,6 0,0
23.04.2018 18:00:00 19,2 12,9 22 12 35 19 W 1017,8 0,0
23.04.2018 17:00:00 20,2 11,4 26 14 44 24 WSW 1017,7 -
23.04.2018 16:00:00 20,7 11,6 26 14 39 21 WSW 1018,1 0,0
23.04.2018 15:00:00 21,6 11,3 26 14 41 22 WSW 1018,6 0,0
23.04.2018 14:00:00 21,5 10,9 22 12 31 17 WSW 1019,0 -
23.04.2018 13:00:00 21,2 11,2 24 13 31 17 WSW 1019,5 0,0
23.04.2018 12:00:00 20,1 12,3 18 10 26 14 W 1019,6 0,0
23.04.2018 11:00:00 18,3 14,4 16 9 24 13 W 1019,7 -
23.04.2018 10:00:00 17,9 14,8 18 10 31 17 W 1019,3 0,0
23.04.2018 09:00:00 16,6 14,4 18 10 24 13 W 1019,1 0,0
23.04.2018 08:00:00 15,3 14,2 16 9 28 15 W 1019,0 -
23.04.2018 07:00:00 14,8 12,7 16 9 22 12 W 1018,3 0,0
23.04.2018 06:00:00 14,6 13,0 18 10 24 13 W 1018,1 0,0
23.04.2018 05:00:00 14,8 13,0 15 8 28 15 W 1018,1 -
23.04.2018 04:00:00 14,8 13,2 18 10 24 13 W 1018,4 0,0
23.04.2018 03:00:00 15,3 12,2 18 10 28 15 W 1018,7 0,0
23.04.2018 02:00:00 15,7 11,1 18 10 26 14 W 1018,9 -
23.04.2018 01:00:00 16,0 10,7 18 10 28 15 W 1019,1 0,0
23.04.2018 00:00:00 16,2 10,3 21 11 35 19 W 1019,2 0,0
22.04.2018 23:00:00 16,9 9,1 21 11 31 17 W 1018,9 -
22.04.2018 22:00:00 17,2 8,9 21 11 35 19 W 1018,5 0,0
22.04.2018 21:00:00 16,6 11,1 24 13 39 21 W 1018,0 0,0
22.04.2018 20:00:00 17,3 10,9 26 14 42 23 W 1017,6 -
22.04.2018 19:00:00 18,1 10,7 31 17 44 24 W 1017,5 0,0
22.04.2018 18:00:00 20,4 10,5 28 15 41 22 W 1017,3 0,0
22.04.2018 17:00:00 20,9 11,2 24 13 37 20 W 1017,4 -
22.04.2018 16:00:00 21,1 12,5 28 15 39 21 W 1017,5 0,0
22.04.2018 15:00:00 21,8 10,9 26 14 35 19 W 1018,0 0,0
22.04.2018 14:00:00 23,0 10,8 21 11 31 17 W 1018,0 -
22.04.2018 13:00:00 20,9 12,3 21 11 31 17 W 1018,3 0,0
22.04.2018 12:00:00 20,8 11,1 18 10 26 14 WSW 1018,5 0,0
22.04.2018 11:00:00 19,8 11,8 18 10 26 14 W 1018,5 -
22.04.2018 10:00:00 18,6 12,6 16 9 26 14 W 1018,0 0,0
22.04.2018 09:00:00 17,1 12,6 21 11 31 17 W 1017,8 0,0
22.04.2018 08:00:00 16,0 12,5 22 12 31 17 W 1017,6 -
22.04.2018 07:00:00 15,7 13,0 24 13 35 19 W 1017,4 0,0
22.04.2018 06:00:00 15,2 13,2 24 13 34 18 W 1017,3 0,0
22.04.2018 05:00:00 15,5 13,2 22 12 34 18 W 1017,5 -
22.04.2018 04:00:00 17,7 9,1 15 8 21 11 W 1017,3 0,0
22.04.2018 03:00:00 17,7 9,3 11 6 16 9 W 1017,5 0,0
22.04.2018 02:00:00 17,7 10,8 13 7 21 11 W 1017,9 -
22.04.2018 01:00:00 16,3 14,1 16 9 24 13 W 1018,5 0,0
22.04.2018 00:00:00 17,3 12,2 18 10 24 13 W 1018,5 0,0
21.04.2018 23:00:00 18,2 10,8 16 9 24 13 W 1018,5 -
21.04.2018 22:00:00 18,3 10,1 18 10 24 13 W 1018,6 0,0
21.04.2018 21:00:00 18,2 11,0 18 10 24 13 W 1018,2 0,0
21.04.2018 20:00:00 19,9 9,7 15 8 18 10 W 1017,9 -
21.04.2018 19:00:00 22,0 8,1 13 7 21 11 W 1018,0 0,0
21.04.2018 18:00:00 21,0 9,6 16 9 24 13 W 1018,6 0,0
21.04.2018 17:00:00 20,5 12,5 15 8 21 11 W 1018,8 -
21.04.2018 16:00:00 21,8 12,1 8 4 13 7 WNW 1019,0 0,0
21.04.2018 15:00:00 24,4 9,2 5 3 13 7 SE 1019,3 0,0
21.04.2018 14:00:00 24,2 8,2 8 4 15 8 ESE 1019,5 -
21.04.2018 13:00:00 23,4 6,6 9 5 22 12 E 1019,9 0,0
21.04.2018 12:00:00 23,3 7,4 13 7 22 12 E 1020,3 0,0
21.04.2018 11:00:00 23,3 9,3 9 5 15 8 E 1020,2 -
21.04.2018 10:00:00 20,0 10,7 8 4 15 8 NE 1020,1 0,0
21.04.2018 09:00:00 21,8 10,9 2 1 8 4 E 1019,7 0,0
21.04.2018 08:00:00 20,1 7,8 5 3 9 5 E 1019,6 -

tt = Température de l'air
td = dewpoint
ff = Vitesse du vent
fx = gusts
dd = Direction du vent
ppp = reduced air pressure
rr = Quantités de précipitations

stations d'obs. à proximité